Shin-oh Maru — JG5594 — position and weather

sailwx.info

Track history (hours):
 
Tides and Currents Weather Stations Pressure Air Temp Water Temp Dewpoint Dewpoint Depression Visibility Wind Speed Wind Dir Waves Ship Positions

Shin-oh Maru

Last reported at 2014-Oct-22 05:33 UTC. Time now 2014-Oct-22 06:33 UTC.
Position N 35°03' E 139°45'.

Length 161 m; draft 7 m.

Type: Ship (hazmat cat A). MMSI: 431100859.

Date/timePositionNaut miles runAvg speedWind from/ knotsBaromVisibWave heightAir tempDewpointWater temp
2014-Oct-22 05:33N 35°03' E 139°45'  
2014-Oct-19 14:33N 35°11' E 139°46'1413.5
2014-Oct-19 13:33N 35°25' E 139°43'1312.5
2014-Oct-19 12:33N 35°37' E 139°46'2 0.3
2014-Oct-19 07:33N 35°36' E 139°47'1312.9
2014-Oct-19 06:33N 35°23' E 139°46'1111.1
2014-Oct-19 05:34N 35°12' E 139°47'  
2014-Oct-16 17:09N 34°58' E 139°42'1219.9
2014-Oct-16 16:32N 35°10' E 139°45'1414.1
2014-Oct-16 15:33N 35°23' E 139°42'1313.5
2014-Oct-16 14:33N 35°36' E 139°46'2 0.3
2014-Oct-16 09:33N 35°38' E 139°46'7 6.9
2014-Oct-16 08:30N 35°34' E 139°53'0 0.1
2014-Oct-16 07:03N 35°34' E 139°53'3 5.7
2014-Oct-16 06:34N 35°31' E 139°52'1414.2
2014-Oct-16 05:33N 35°18' E 139°45'  
Track history (hours):
 
Tides and Currents Weather Stations Pressure Air Temp Water Temp Dewpoint Dewpoint Depression Visibility Wind Speed Wind Dir Waves Ship Positions

Shin-oh Maru

Last reported at 2014-Oct-22 05:33 UTC. Time now 2014-Oct-22 06:33 UTC.
Position N 35°03' E 139°45'.

Length 161 m; draft 7 m.

Type: Ship (hazmat cat A). MMSI: 431100859.

Date/timePositionNaut miles runAvg speedWind from/ knotsBaromVisibWave heightAir tempDewpointWater temp
2014-Oct-22 05:33N 35°03' E 139°45'  
2014-Oct-19 14:33N 35°11' E 139°46'1413.5
2014-Oct-19 13:33N 35°25' E 139°43'1312.5
2014-Oct-19 12:33N 35°37' E 139°46'2 0.3
2014-Oct-19 07:33N 35°36' E 139°47'1312.9
2014-Oct-19 06:33N 35°23' E 139°46'1111.1
2014-Oct-19 05:34N 35°12' E 139°47'  
2014-Oct-16 17:09N 34°58' E 139°42'1219.9
2014-Oct-16 16:32N 35°10' E 139°45'1414.1
2014-Oct-16 15:33N 35°23' E 139°42'1313.5
2014-Oct-16 14:33N 35°36' E 139°46'2 0.3
2014-Oct-16 09:33N 35°38' E 139°46'7 6.9
2014-Oct-16 08:30N 35°34' E 139°53'0 0.1
2014-Oct-16 07:03N 35°34' E 139°53'3 5.7
2014-Oct-16 06:34N 35°31' E 139°52'1414.2
2014-Oct-16 05:33N 35°18' E 139°45'  

Dump ship's entire track history